Terminal Aerodrome Forecast
Issued by NWS

Home | Current Version | Previous Version | Text Only | Print | Product List | Glossary On
Versions: 1 2 3 4 5 6 7 8 9 10 11 12
000
FTUS45 KVEF 160500
TAFEED
TAF
KEED 160520Z 1606/1706 24008KT P6SM FEW250
     FM161200 VRB05KT P6SM FEW250
     FM161800 05006KT P6SM FEW250
     FM170300 24007KT P6SM FEW250=

USA.gov is the U.S. government's official web portal to all federal, state and local government web resources and services.